createdAt,value
2022-08-30T00:03:17.964Z,7.927338
2022-08-30T00:08:19.717Z,8.13665
2022-08-30T00:13:21.399Z,7.834348
2022-08-30T00:18:24.520Z,7.460128
2022-08-30T00:23:26.466Z,7.788008
2022-08-30T00:28:27.911Z,7.429678
2022-08-30T00:33:29.571Z,8.18535
2022-08-30T00:38:31.165Z,7.18563
2022-08-30T00:43:32.830Z,7.857866
2022-08-30T00:48:34.881Z,7.947328
2022-08-30T00:53:36.627Z,7.503498
2022-08-30T00:58:38.055Z,7.778878
2022-08-30T01:03:39.943Z,7.23607
2022-08-30T01:08:41.616Z,7.753272
2022-08-30T01:13:43.146Z,7.863916
2022-08-30T01:18:45.210Z,7.818148
2022-08-30T01:23:47.807Z,7.48982
2022-08-30T01:28:50.106Z,8.21621
2022-08-30T01:33:52.197Z,7.360516
2022-08-30T01:38:54.411Z,7.527326
2022-08-30T01:43:56.345Z,7.83492
2022-08-30T01:48:58.813Z,7.476142
2022-08-30T01:54:00.613Z,7.608092
2022-08-30T01:59:03.070Z,7.33552
2022-08-30T02:04:05.263Z,8.16003
2022-08-30T02:09:07.241Z,7.696062
2022-08-30T02:14:08.677Z,7.529972
2022-08-30T02:19:10.436Z,6.79829
2022-08-30T02:24:14.376Z,6.749752
2022-08-30T02:29:16.446Z,7.320202
2022-08-30T02:34:18.195Z,6.65957
2022-08-30T02:39:19.961Z,6.546008
2022-08-30T02:44:21.753Z,6.334188
2022-08-30T02:49:33.284Z,6.37229
2022-08-30T02:54:35.884Z,6.898598
2022-08-30T02:59:37.727Z,6.888896
2022-08-30T03:04:40.818Z,6.272406
2022-08-30T03:09:42.701Z,6.300644
2022-08-30T03:14:44.596Z,6.946864
2022-08-30T03:19:46.648Z,6.358898
2022-08-30T03:24:48.641Z,6.95156
2022-08-30T03:29:50.817Z,6.457018
2022-08-30T03:34:52.750Z,7.284608
2022-08-30T03:39:54.498Z,6.819038
2022-08-30T03:44:56.441Z,7.065284
2022-08-30T03:49:58.703Z,7.380368
2022-08-30T03:55:02.038Z,6.690182
2022-08-30T04:00:04.048Z,6.90245
2022-08-30T04:05:05.936Z,7.084988
2022-08-30T04:10:07.779Z,7.197992
2022-08-30T04:15:09.237Z,7.363758
2022-08-30T04:20:11.509Z,7.712386
2022-08-30T04:25:15.833Z,6.669286
2022-08-30T04:30:17.717Z,7.346838
2022-08-30T04:35:19.402Z,6.771382
2022-08-30T04:40:21.468Z,6.999812
2022-08-30T04:45:23.741Z,7.435542
2022-08-30T04:50:25.874Z,7.061756
2022-08-30T04:55:27.838Z,7.143838
2022-08-30T05:00:29.531Z,7.409378
2022-08-30T05:05:31.241Z,7.484962
2022-08-30T05:10:33.026Z,7.608836
2022-08-30T05:15:34.801Z,8.349352
2022-08-30T05:20:37.600Z,8.80583
2022-08-30T05:25:39.537Z,8.736258
2022-08-30T05:30:41.379Z,8.760658
2022-08-30T05:35:43.264Z,8.505454
2022-08-30T05:40:44.957Z,8.76021
2022-08-30T05:45:47.134Z,8.853486
2022-08-30T05:50:49.157Z,9.125176
2022-08-30T05:55:51.068Z,9.597096
2022-08-30T06:00:52.698Z,9.643274
2022-08-30T06:05:54.317Z,10.188794
2022-08-30T06:10:55.759Z,11.405344
2022-08-30T06:15:57.405Z,10.940356
2022-08-30T06:20:59.316Z,11.30372
2022-08-30T06:26:00.783Z,11.442306
2022-08-30T06:31:02.345Z,11.467898
2022-08-30T06:36:06.046Z,11.656066
2022-08-30T06:41:07.642Z,12.398212
2022-08-30T06:46:09.313Z,11.599414
2022-08-30T06:51:12.004Z,12.722754
2022-08-30T06:56:16.540Z,13.430812
2022-08-30T07:01:18.455Z,13.259482
2022-08-30T07:06:20.369Z,13.857926
2022-08-30T07:11:23.651Z,12.76148
2022-08-30T07:16:27.179Z,13.70356
2022-08-30T07:21:29.481Z,13.931188
2022-08-30T07:26:31.237Z,14.506252
2022-08-30T07:31:33.424Z,14.647036
2022-08-30T07:36:35.513Z,14.441538
2022-08-30T07:41:37.259Z,15.194024
2022-08-30T07:46:39.085Z,15.088982
2022-08-30T07:51:42.123Z,15.484154
2022-08-30T07:56:43.919Z,15.663516
2022-08-30T08:01:45.883Z,16.343188
2022-08-30T08:06:47.923Z,17.169126
2022-08-30T08:11:49.624Z,16.767942
2022-08-30T08:16:51.278Z,16.601118
2022-08-30T08:22:15.313Z,17.869912
2022-08-30T08:27:21.923Z,18.122374
2022-08-30T08:32:23.412Z,18.758732
2022-08-30T08:37:26.740Z,17.471808
2022-08-30T08:42:29.727Z,17.247612
2022-08-30T08:47:31.487Z,18.614406
2022-08-30T08:52:34.832Z,18.471844
2022-08-30T08:57:36.821Z,20.040188
2022-08-30T09:02:38.595Z,19.530664
2022-08-30T09:07:40.419Z,18.996172
2022-08-30T09:12:42.205Z,19.209798
2022-08-30T09:17:44.375Z,21.371906
2022-08-30T09:22:46.878Z,20.483058
2022-08-30T09:27:49.990Z,20.282798
2022-08-30T09:32:52.342Z,20.586716
2022-08-30T09:37:54.015Z,20.426378
2022-08-30T09:42:55.650Z,20.3369
2022-08-30T09:47:57.119Z,21.51132
2022-08-30T09:53:00.147Z,20.121144
2022-08-30T09:58:01.601Z,21.350792
2022-08-30T10:03:03.482Z,20.939878
2022-08-30T10:08:05.366Z,19.649398
2022-08-30T10:13:07.383Z,20.426568
2022-08-30T10:18:08.875Z,19.922336
2022-08-30T10:23:10.682Z,20.384882
2022-08-30T10:28:12.308Z,19.673226
2022-08-30T10:33:13.786Z,20.675488
2022-08-30T10:38:15.682Z,21.36793
2022-08-30T10:43:17.575Z,21.96776
2022-08-30T10:48:19.846Z,21.18698
2022-08-30T10:53:21.805Z,20.915086
2022-08-30T10:58:23.716Z,20.831036
2022-08-30T11:03:26.463Z,19.774224
2022-08-30T11:08:28.502Z,20.576186
2022-08-30T11:13:30.268Z,22.136932
2022-08-30T11:18:32.037Z,21.844182
2022-08-30T11:23:33.720Z,22.020668
2022-08-30T11:28:35.220Z,20.282242
2022-08-30T11:33:36.705Z,21.484452
2022-08-30T11:38:38.467Z,20.756892
2022-08-30T11:43:40.273Z,21.980556
2022-08-30T11:48:53.597Z,19.514516
2022-08-30T11:53:56.660Z,20.483058
2022-08-30T11:58:59.049Z,20.395046
2022-08-30T12:04:00.911Z,20.069064
2022-08-30T12:09:03.230Z,20.171012
2022-08-30T12:14:11.570Z,19.892076
2022-08-30T12:19:15.848Z,20.136328
2022-08-30T12:24:20.855Z,19.286588
2022-08-30T12:29:22.669Z,20.715654
2022-08-30T12:34:26.279Z,19.053558
2022-08-30T12:39:27.923Z,20.379088
2022-08-30T12:44:29.736Z,19.698574
2022-08-30T12:49:31.497Z,19.754616
2022-08-30T12:54:33.925Z,19.920572
2022-08-30T12:59:35.875Z,19.736704
2022-08-30T13:04:37.717Z,20.070828
2022-08-30T13:09:39.428Z,19.945472
2022-08-30T13:14:42.376Z,19.453168
2022-08-30T13:19:45.175Z,19.631486
2022-08-30T13:24:47.215Z,18.88326
2022-08-30T13:29:48.629Z,19.54232
2022-08-30T13:34:50.143Z,19.451146
2022-08-30T13:39:51.976Z,18.973158
2022-08-30T13:44:53.741Z,18.849648
2022-08-30T13:49:55.798Z,19.201412
2022-08-30T13:54:57.606Z,18.908716
2022-08-30T13:59:59.187Z,18.854058
2022-08-30T14:05:02.830Z,18.724306
2022-08-30T14:10:32.067Z,18.769764
2022-08-30T14:15:34.706Z,18.93112
2022-08-30T14:20:40.755Z,18.082032
2022-08-30T14:25:46.261Z,17.787816
2022-08-30T14:30:48.138Z,18.024836
2022-08-30T14:35:52.432Z,17.995702
2022-08-30T14:40:55.400Z,16.947046
2022-08-30T14:45:57.291Z,17.094452
2022-08-30T14:50:59.237Z,16.921888
2022-08-30T14:56:01.829Z,17.06886
2022-08-30T15:01:04.647Z,16.686646
2022-08-30T15:06:07.276Z,16.484338
2022-08-30T15:11:09.482Z,16.445326
2022-08-30T15:16:11.327Z,15.69645
2022-08-30T15:21:13.120Z,15.640842
2022-08-30T15:26:14.817Z,15.164984
2022-08-30T15:31:16.379Z,15.514088
2022-08-30T15:36:17.861Z,15.202762
2022-08-30T15:41:20.026Z,14.420084
2022-08-30T15:46:21.601Z,14.407832
2022-08-30T15:51:24.246Z,14.358912
2022-08-30T15:56:26.291Z,13.87558
2022-08-30T16:01:30.607Z,13.737618
2022-08-30T16:06:32.453Z,13.251706
2022-08-30T16:11:34.223Z,13.073674
2022-08-30T16:16:36.263Z,12.735168
2022-08-30T16:21:38.388Z,12.780192
2022-08-30T16:26:40.407Z,12.683808
2022-08-30T16:31:42.779Z,12.071958
2022-08-30T16:36:44.285Z,11.825698
2022-08-30T16:41:46.874Z,12.025184
2022-08-30T16:46:53.190Z,11.69022
2022-08-30T16:51:55.400Z,11.500274
2022-08-30T16:56:58.168Z,11.79305
2022-08-30T17:01:59.652Z,11.3398
2022-08-30T17:07:01.146Z,11.391108
2022-08-30T17:12:03.724Z,11.232126
2022-08-30T17:17:05.702Z,10.913038
2022-08-30T17:22:08.749Z,11.366994
2022-08-30T17:27:11.254Z,10.660442
2022-08-30T17:32:13.299Z,10.530094
2022-08-30T17:37:14.882Z,10.260888
2022-08-30T17:42:16.729Z,9.888418
2022-08-30T17:47:19.227Z,9.994166
2022-08-30T17:52:20.788Z,10.527882
2022-08-30T17:57:23.027Z,9.682434
2022-08-30T18:02:27.827Z,9.578884
2022-08-30T18:07:32.006Z,9.41544
2022-08-30T18:12:34.440Z,9.425156
2022-08-30T18:17:36.405Z,9.432646
2022-08-30T18:22:38.264Z,9.59947
2022-08-30T18:27:40.402Z,9.526046
2022-08-30T18:32:42.549Z,9.304224
2022-08-30T18:37:44.865Z,8.767318
2022-08-30T18:42:46.479Z,9.302908
2022-08-30T18:47:47.937Z,8.724344
2022-08-30T18:52:50.178Z,8.870978
2022-08-30T18:57:52.373Z,9.093
2022-08-30T19:02:56.207Z,8.90969
2022-08-30T19:07:57.908Z,8.472358
2022-08-30T19:12:59.912Z,8.822602
2022-08-30T19:18:01.782Z,8.104436
2022-08-30T19:23:19.616Z,7.622838
2022-08-30T19:28:25.921Z,8.253592
2022-08-30T19:33:27.482Z,8.490446
2022-08-30T19:38:29.259Z,8.486036
2022-08-30T19:43:30.920Z,8.14342
2022-08-30T19:48:34.252Z,7.931152
2022-08-30T19:53:37.344Z,7.78243
2022-08-30T19:58:39.372Z,7.84774
2022-08-30T20:03:41.231Z,8.14916
2022-08-30T20:08:42.732Z,7.292994
2022-08-30T20:13:44.407Z,7.600588
2022-08-30T20:18:46.054Z,7.507188
2022-08-30T20:23:47.910Z,7.51279
2022-08-30T20:28:49.926Z,7.807116
2022-08-30T20:33:51.874Z,6.692256
2022-08-30T20:38:53.642Z,7.335358
2022-08-30T20:43:55.673Z,6.502624
2022-08-30T20:48:57.132Z,6.543796
2022-08-30T20:53:58.675Z,6.270642
2022-08-30T20:59:00.436Z,6.379632
2022-08-30T21:04:02.044Z,6.642512
2022-08-30T21:09:03.497Z,5.667382
2022-08-30T21:14:05.228Z,6.04513
2022-08-30T21:19:06.670Z,5.706652
2022-08-30T21:24:08.122Z,6.028496
2022-08-30T21:29:09.980Z,5.456134
2022-08-30T21:34:17.183Z,5.696068
2022-08-30T21:39:19.334Z,5.88273
2022-08-30T21:44:20.769Z,5.71622
2022-08-30T21:49:22.564Z,5.14341
2022-08-30T21:54:24.340Z,5.449526
2022-08-30T21:59:26.281Z,5.768286
2022-08-30T22:04:28.048Z,5.71356
2022-08-30T22:09:29.923Z,5.513368
2022-08-30T22:14:31.904Z,5.740768
2022-08-30T22:19:34.281Z,5.871102
2022-08-30T22:24:36.449Z,5.671792
2022-08-30T22:29:39.358Z,5.428926
2022-08-30T22:34:41.303Z,5.214746
2022-08-30T22:39:43.084Z,5.6587
2022-08-30T22:44:45.020Z,4.810386
2022-08-30T22:49:46.806Z,5.39039
2022-08-30T22:54:48.685Z,4.743164
2022-08-30T22:59:50.684Z,5.3826
2022-08-30T23:04:52.450Z,5.721374
2022-08-30T23:09:54.194Z,6.01909
2022-08-30T23:14:56.198Z,5.73519
2022-08-30T23:19:57.999Z,6.289326
2022-08-30T23:24:59.771Z,6.645744
2022-08-30T23:30:01.870Z,6.305216
2022-08-30T23:35:03.664Z,6.500412
2022-08-30T23:40:05.475Z,6.629568
2022-08-30T23:45:07.343Z,6.393758
2022-08-30T23:50:09.210Z,6.479816
2022-08-30T23:55:10.868Z,7.101164
